sensor_id;sensor_type;location;lat;lon;timestamp;P1;durP1;ratioP1;P2;durP2;ratioP2
17520;SDS011;8878;-33.370;-70.552;2023-08-24T00:01:15;0.00;;;0.00;;
17520;SDS011;8878;-33.370;-70.552;2023-08-24T00:03:45;0.10;;;0.10;;
17520;SDS011;8878;-33.370;-70.552;2023-08-24T00:06:17;2.03;;;0.13;;
17520;SDS011;8878;-33.370;-70.552;2023-08-24T00:08:47;0.20;;;0.20;;
17520;SDS011;8878;-33.370;-70.552;2023-08-24T00:11:16;0.10;;;0.10;;
17520;SDS011;8878;-33.370;-70.552;2023-08-24T00:13:46;0.00;;;0.00;;
17520;SDS011;8878;-33.370;-70.552;2023-08-24T00:16:17;0.20;;;0.13;;
17520;SDS011;8878;-33.370;-70.552;2023-08-24T00:18:47;0.10;;;0.10;;
17520;SDS011;8878;-33.370;-70.552;2023-08-24T00:21:18;0.00;;;0.00;;
17520;SDS011;8878;-33.370;-70.552;2023-08-24T00:23:48;0.23;;;0.23;;
17520;SDS011;8878;-33.370;-70.552;2023-08-24T00:26:18;0.10;;;0.10;;
17520;SDS011;8878;-33.370;-70.552;2023-08-24T00:28:49;0.00;;;0.00;;
17520;SDS011;8878;-33.370;-70.552;2023-08-24T00:31:18;0.10;;;0.10;;
17520;SDS011;8878;-33.370;-70.552;2023-08-24T00:33:48;0.10;;;0.10;;
17520;SDS011;8878;-33.370;-70.552;2023-08-24T00:36:20;0.17;;;0.17;;
17520;SDS011;8878;-33.370;-70.552;2023-08-24T00:38:49;0.40;;;0.27;;
17520;SDS011;8878;-33.370;-70.552;2023-08-24T00:41:19;0.20;;;0.20;;
17520;SDS011;8878;-33.370;-70.552;2023-08-24T00:43:51;0.00;;;0.00;;
17520;SDS011;8878;-33.370;-70.552;2023-08-24T00:46:21;0.10;;;0.10;;
17520;SDS011;8878;-33.370;-70.552;2023-08-24T00:48:53;0.40;;;0.40;;
17520;SDS011;8878;-33.370;-70.552;2023-08-24T00:51:26;0.30;;;0.30;;
17520;SDS011;8878;-33.370;-70.552;2023-08-24T00:53:55;0.30;;;0.13;;
17520;SDS011;8878;-33.370;-70.552;2023-08-24T00:56:25;0.10;;;0.10;;
17520;SDS011;8878;-33.370;-70.552;2023-08-24T00:58:55;0.00;;;0.00;;
17520;SDS011;8878;-33.370;-70.552;2023-08-24T01:01:25;0.00;;;0.00;;
17520;SDS011;8878;-33.370;-70.552;2023-08-24T01:03:54;0.40;;;0.40;;
17520;SDS011;8878;-33.370;-70.552;2023-08-24T01:06:26;0.30;;;0.30;;
17520;SDS011;8878;-33.370;-70.552;2023-08-24T01:08:55;0.10;;;0.10;;
17520;SDS011;8878;-33.370;-70.552;2023-08-24T01:11:28;0.00;;;0.00;;
17520;SDS011;8878;-33.370;-70.552;2023-08-24T01:14:09;0.10;;;0.10;;
17520;SDS011;8878;-33.370;-70.552;2023-08-24T01:16:50;0.20;;;0.20;;
17520;SDS011;8878;-33.370;-70.552;2023-08-24T01:19:25;0.40;;;0.40;;
17520;SDS011;8878;-33.370;-70.552;2023-08-24T01:22:08;0.17;;;0.17;;
17520;SDS011;8878;-33.370;-70.552;2023-08-24T01:24:53;0.00;;;0.00;;
17520;SDS011;8878;-33.370;-70.552;2023-08-24T01:27:31;0.10;;;0.10;;
17520;SDS011;8878;-33.370;-70.552;2023-08-24T01:30:02;0.73;;;0.73;;
17520;SDS011;8878;-33.370;-70.552;2023-08-24T01:32:33;0.10;;;0.10;;
17520;SDS011;8878;-33.370;-70.552;2023-08-24T01:35:05;0.10;;;0.10;;
17520;SDS011;8878;-33.370;-70.552;2023-08-24T01:37:35;0.50;;;0.50;;
17520;SDS011;8878;-33.370;-70.552;2023-08-24T01:40:05;0.10;;;0.10;;
17520;SDS011;8878;-33.370;-70.552;2023-08-24T01:42:45;0.23;;;0.23;;
17520;SDS011;8878;-33.370;-70.552;2023-08-24T01:45:20;0.10;;;0.10;;
17520;SDS011;8878;-33.370;-70.552;2023-08-24T01:47:54;0.10;;;0.10;;
17520;SDS011;8878;-33.370;-70.552;2023-08-24T01:50:27;0.53;;;0.53;;
17520;SDS011;8878;-33.370;-70.552;2023-08-24T01:52:58;0.00;;;0.00;;
17520;SDS011;8878;-33.370;-70.552;2023-08-24T01:55:28;0.10;;;0.10;;
17520;SDS011;8878;-33.370;-70.552;2023-08-24T01:57:59;0.10;;;0.10;;
17520;SDS011;8878;-33.370;-70.552;2023-08-24T02:00:29;0.23;;;0.23;;
17520;SDS011;8878;-33.370;-70.552;2023-08-24T02:03:00;0.77;;;0.77;;
17520;SDS011;8878;-33.370;-70.552;2023-08-24T02:05:31;0.30;;;0.30;;
17520;SDS011;8878;-33.370;-70.552;2023-08-24T02:08:01;0.33;;;0.23;;
17520;SDS011;8878;-33.370;-70.552;2023-08-24T02:10:31;0.37;;;0.23;;
17520;SDS011;8878;-33.370;-70.552;2023-08-24T02:13:02;0.10;;;0.10;;
17520;SDS011;8878;-33.370;-70.552;2023-08-24T02:15:32;0.20;;;0.20;;
17520;SDS011;8878;-33.370;-70.552;2023-08-24T02:18:01;0.40;;;0.40;;
17520;SDS011;8878;-33.370;-70.552;2023-08-24T02:20:34;0.30;;;0.30;;
17520;SDS011;8878;-33.370;-70.552;2023-08-24T02:23:04;0.70;;;0.70;;
17520;SDS011;8878;-33.370;-70.552;2023-08-24T02:25:34;0.30;;;0.30;;
17520;SDS011;8878;-33.370;-70.552;2023-08-24T02:28:11;0.30;;;0.30;;
17520;SDS011;8878;-33.370;-70.552;2023-08-24T02:30:41;0.43;;;0.43;;
17520;SDS011;8878;-33.370;-70.552;2023-08-24T02:33:10;0.50;;;0.40;;
17520;SDS011;8878;-33.370;-70.552;2023-08-24T02:35:39;1.70;;;0.10;;
17520;SDS011;8878;-33.370;-70.552;2023-08-24T02:38:10;0.30;;;0.13;;
17520;SDS011;8878;-33.370;-70.552;2023-08-24T02:40:40;0.13;;;0.13;;
17520;SDS011;8878;-33.370;-70.552;2023-08-24T02:43:12;0.10;;;0.10;;
17520;SDS011;8878;-33.370;-70.552;2023-08-24T02:45:42;0.10;;;0.10;;
17520;SDS011;8878;-33.370;-70.552;2023-08-24T02:48:11;0.40;;;0.40;;
17520;SDS011;8878;-33.370;-70.552;2023-08-24T02:50:41;0.90;;;0.90;;
17520;SDS011;8878;-33.370;-70.552;2023-08-24T02:53:16;0.63;;;0.63;;
17520;SDS011;8878;-33.370;-70.552;2023-08-24T02:55:45;0.40;;;0.40;;
17520;SDS011;8878;-33.370;-70.552;2023-08-24T02:58:16;0.90;;;0.73;;
17520;SDS011;8878;-33.370;-70.552;2023-08-24T03:00:46;0.37;;;0.37;;
17520;SDS011;8878;-33.370;-70.552;2023-08-24T03:03:15;0.57;;;0.53;;
17520;SDS011;8878;-33.370;-70.552;2023-08-24T03:05:53;0.63;;;0.50;;
17520;SDS011;8878;-33.370;-70.552;2023-08-24T03:08:23;3.83;;;0.73;;
17520;SDS011;8878;-33.370;-70.552;2023-08-24T03:10:53;0.30;;;0.30;;
17520;SDS011;8878;-33.370;-70.552;2023-08-24T03:13:24;1.80;;;1.20;;
17520;SDS011;8878;-33.370;-70.552;2023-08-24T03:15:54;0.83;;;0.83;;
17520;SDS011;8878;-33.370;-70.552;2023-08-24T03:18:23;0.77;;;0.77;;
17520;SDS011;8878;-33.370;-70.552;2023-08-24T03:20:53;1.23;;;0.77;;
17520;SDS011;8878;-33.370;-70.552;2023-08-24T03:23:22;0.73;;;0.73;;
17520;SDS011;8878;-33.370;-70.552;2023-08-24T03:25:52;0.73;;;0.67;;
17520;SDS011;8878;-33.370;-70.552;2023-08-24T03:28:21;0.53;;;0.53;;
17520;SDS011;8878;-33.370;-70.552;2023-08-24T03:30:52;0.83;;;0.73;;
17520;SDS011;8878;-33.370;-70.552;2023-08-24T03:33:22;0.57;;;0.57;;
17520;SDS011;8878;-33.370;-70.552;2023-08-24T03:35:52;0.20;;;0.20;;
17520;SDS011;8878;-33.370;-70.552;2023-08-24T03:38:21;0.77;;;0.77;;
17520;SDS011;8878;-33.370;-70.552;2023-08-24T03:40:51;1.23;;;1.17;;
17520;SDS011;8878;-33.370;-70.552;2023-08-24T03:43:20;1.50;;;1.40;;
17520;SDS011;8878;-33.370;-70.552;2023-08-24T03:45:49;0.63;;;0.63;;
17520;SDS011;8878;-33.370;-70.552;2023-08-24T03:48:20;1.87;;;1.17;;
17520;SDS011;8878;-33.370;-70.552;2023-08-24T03:50:53;1.73;;;1.40;;
17520;SDS011;8878;-33.370;-70.552;2023-08-24T03:53:23;0.73;;;0.73;;
17520;SDS011;8878;-33.370;-70.552;2023-08-24T03:55:52;0.70;;;0.60;;
17520;SDS011;8878;-33.370;-70.552;2023-08-24T03:58:22;0.63;;;0.63;;
17520;SDS011;8878;-33.370;-70.552;2023-08-24T04:00:53;3.30;;;1.03;;
17520;SDS011;8878;-33.370;-70.552;2023-08-24T04:03:23;1.40;;;0.73;;
17520;SDS011;8878;-33.370;-70.552;2023-08-24T04:05:52;7.50;;;0.67;;
17520;SDS011;8878;-33.370;-70.552;2023-08-24T04:08:23;2.03;;;1.93;;
17520;SDS011;8878;-33.370;-70.552;2023-08-24T04:10:52;1.17;;;1.17;;
17520;SDS011;8878;-33.370;-70.552;2023-08-24T04:13:22;0.83;;;0.83;;
17520;SDS011;8878;-33.370;-70.552;2023-08-24T04:15:54;0.73;;;0.43;;
17520;SDS011;8878;-33.370;-70.552;2023-08-24T04:18:24;0.77;;;0.77;;
17520;SDS011;8878;-33.370;-70.552;2023-08-24T04:20:53;3.90;;;1.23;;
17520;SDS011;8878;-33.370;-70.552;2023-08-24T04:23:27;0.50;;;0.50;;
17520;SDS011;8878;-33.370;-70.552;2023-08-24T04:25:56;1.80;;;1.47;;
17520;SDS011;8878;-33.370;-70.552;2023-08-24T04:28:28;1.97;;;1.10;;
17520;SDS011;8878;-33.370;-70.552;2023-08-24T04:30:59;0.33;;;0.33;;
17520;SDS011;8878;-33.370;-70.552;2023-08-24T04:33:28;1.27;;;1.10;;
17520;SDS011;8878;-33.370;-70.552;2023-08-24T04:35:59;0.70;;;0.70;;
17520;SDS011;8878;-33.370;-70.552;2023-08-24T04:38:29;0.90;;;0.90;;
17520;SDS011;8878;-33.370;-70.552;2023-08-24T04:40:59;1.30;;;1.20;;
17520;SDS011;8878;-33.370;-70.552;2023-08-24T04:43:28;1.37;;;1.07;;
17520;SDS011;8878;-33.370;-70.552;2023-08-24T04:46:00;2.03;;;1.20;;
17520;SDS011;8878;-33.370;-70.552;2023-08-24T04:48:29;1.40;;;1.00;;
17520;SDS011;8878;-33.370;-70.552;2023-08-24T04:51:01;2.67;;;0.90;;
17520;SDS011;8878;-33.370;-70.552;2023-08-24T04:53:30;1.17;;;1.17;;
17520;SDS011;8878;-33.370;-70.552;2023-08-24T04:56:01;0.70;;;0.70;;
17520;SDS011;8878;-33.370;-70.552;2023-08-24T04:58:32;10.33;;;1.43;;
17520;SDS011;8878;-33.370;-70.552;2023-08-24T05:01:04;1.07;;;0.50;;
17520;SDS011;8878;-33.370;-70.552;2023-08-24T05:03:33;1.73;;;1.60;;
17520;SDS011;8878;-33.370;-70.552;2023-08-24T05:06:02;1.63;;;0.60;;
17520;SDS011;8878;-33.370;-70.552;2023-08-24T05:08:33;1.13;;;1.13;;
17520;SDS011;8878;-33.370;-70.552;2023-08-24T05:14:05;0.20;;;0.20;;
17520;SDS011;8878;-33.370;-70.552;2023-08-24T05:16:36;0.47;;;0.47;;
17520;SDS011;8878;-33.370;-70.552;2023-08-24T05:19:07;9.90;;;1.43;;
17520;SDS011;8878;-33.370;-70.552;2023-08-24T05:21:37;0.87;;;0.87;;
17520;SDS011;8878;-33.370;-70.552;2023-08-24T05:24:06;0.83;;;0.67;;
17520;SDS011;8878;-33.370;-70.552;2023-08-24T05:26:36;0.60;;;0.60;;
17520;SDS011;8878;-33.370;-70.552;2023-08-24T05:29:05;0.70;;;0.57;;
17520;SDS011;8878;-33.370;-70.552;2023-08-24T05:31:36;0.63;;;0.63;;
17520;SDS011;8878;-33.370;-70.552;2023-08-24T05:34:06;1.53;;;1.23;;
17520;SDS011;8878;-33.370;-70.552;2023-08-24T05:36:37;2.27;;;1.43;;
17520;SDS011;8878;-33.370;-70.552;2023-08-24T05:39:08;1.20;;;1.10;;
17520;SDS011;8878;-33.370;-70.552;2023-08-24T05:41:39;2.73;;;1.13;;
17520;SDS011;8878;-33.370;-70.552;2023-08-24T05:44:08;14.43;;;1.60;;
17520;SDS011;8878;-33.370;-70.552;2023-08-24T05:46:39;2.43;;;1.77;;
17520;SDS011;8878;-33.370;-70.552;2023-08-24T05:49:08;1.90;;;0.60;;
17520;SDS011;8878;-33.370;-70.552;2023-08-24T05:51:38;0.50;;;0.50;;
17520;SDS011;8878;-33.370;-70.552;2023-08-24T05:54:08;1.23;;;1.13;;
17520;SDS011;8878;-33.370;-70.552;2023-08-24T05:56:39;2.10;;;0.87;;
17520;SDS011;8878;-33.370;-70.552;2023-08-24T05:59:08;1.37;;;1.27;;
17520;SDS011;8878;-33.370;-70.552;2023-08-24T06:01:40;0.97;;;0.63;;
17520;SDS011;8878;-33.370;-70.552;2023-08-24T06:04:10;0.37;;;0.20;;
17520;SDS011;8878;-33.370;-70.552;2023-08-24T06:06:39;1.83;;;1.53;;
17520;SDS011;8878;-33.370;-70.552;2023-08-24T06:09:09;0.53;;;0.53;;
17520;SDS011;8878;-33.370;-70.552;2023-08-24T06:11:38;0.97;;;0.97;;
17520;SDS011;8878;-33.370;-70.552;2023-08-24T06:14:08;1.77;;;1.67;;
17520;SDS011;8878;-33.370;-70.552;2023-08-24T06:16:37;1.07;;;0.97;;
17520;SDS011;8878;-33.370;-70.552;2023-08-24T06:19:08;0.80;;;0.80;;
17520;SDS011;8878;-33.370;-70.552;2023-08-24T06:21:38;14.53;;;1.10;;
17520;SDS011;8878;-33.370;-70.552;2023-08-24T06:24:07;1.67;;;1.10;;
17520;SDS011;8878;-33.370;-70.552;2023-08-24T06:26:37;0.40;;;0.40;;
17520;SDS011;8878;-33.370;-70.552;2023-08-24T06:29:06;0.83;;;0.80;;
17520;SDS011;8878;-33.370;-70.552;2023-08-24T06:31:36;0.90;;;0.90;;
17520;SDS011;8878;-33.370;-70.552;2023-08-24T06:34:05;1.23;;;0.77;;
17520;SDS011;8878;-33.370;-70.552;2023-08-24T06:36:36;1.90;;;1.10;;
17520;SDS011;8878;-33.370;-70.552;2023-08-24T06:39:06;1.17;;;1.13;;
17520;SDS011;8878;-33.370;-70.552;2023-08-24T06:41:35;3.80;;;1.97;;
17520;SDS011;8878;-33.370;-70.552;2023-08-24T06:44:05;1.83;;;1.73;;
17520;SDS011;8878;-33.370;-70.552;2023-08-24T06:46:34;4.50;;;2.27;;
17520;SDS011;8878;-33.370;-70.552;2023-08-24T06:49:05;1.37;;;1.27;;
17520;SDS011;8878;-33.370;-70.552;2023-08-24T06:51:37;3.93;;;1.33;;
17520;SDS011;8878;-33.370;-70.552;2023-08-24T06:54:07;0.87;;;0.80;;
17520;SDS011;8878;-33.370;-70.552;2023-08-24T06:56:37;1.70;;;1.60;;
17520;SDS011;8878;-33.370;-70.552;2023-08-24T06:59:06;0.70;;;0.70;;
17520;SDS011;8878;-33.370;-70.552;2023-08-24T07:01:38;1.23;;;1.13;;
17520;SDS011;8878;-33.370;-70.552;2023-08-24T07:04:09;1.77;;;1.67;;
17520;SDS011;8878;-33.370;-70.552;2023-08-24T07:06:40;0.90;;;0.90;;
17520;SDS011;8878;-33.370;-70.552;2023-08-24T07:09:10;4.57;;;2.13;;
17520;SDS011;8878;-33.370;-70.552;2023-08-24T07:11:41;0.60;;;0.60;;
17520;SDS011;8878;-33.370;-70.552;2023-08-24T07:14:10;3.40;;;2.03;;
17520;SDS011;8878;-33.370;-70.552;2023-08-24T07:16:40;1.70;;;1.60;;
17520;SDS011;8878;-33.370;-70.552;2023-08-24T07:19:11;1.33;;;1.23;;
17520;SDS011;8878;-33.370;-70.552;2023-08-24T07:21:43;4.53;;;1.47;;
17520;SDS011;8878;-33.370;-70.552;2023-08-24T07:24:13;0.63;;;0.63;;
17520;SDS011;8878;-33.370;-70.552;2023-08-24T07:26:44;2.60;;;1.83;;
17520;SDS011;8878;-33.370;-70.552;2023-08-24T07:29:14;1.33;;;1.23;;
17520;SDS011;8878;-33.370;-70.552;2023-08-24T07:31:43;3.60;;;1.10;;
17520;SDS011;8878;-33.370;-70.552;2023-08-24T07:34:12;0.77;;;0.70;;
17520;SDS011;8878;-33.370;-70.552;2023-08-24T07:36:44;1.37;;;1.27;;
17520;SDS011;8878;-33.370;-70.552;2023-08-24T07:39:15;1.27;;;0.77;;
17520;SDS011;8878;-33.370;-70.552;2023-08-24T07:41:44;0.97;;;0.80;;
17520;SDS011;8878;-33.370;-70.552;2023-08-24T07:44:14;0.80;;;0.80;;
17520;SDS011;8878;-33.370;-70.552;2023-08-24T07:46:44;0.40;;;0.40;;
17520;SDS011;8878;-33.370;-70.552;2023-08-24T07:49:15;0.70;;;0.70;;
17520;SDS011;8878;-33.370;-70.552;2023-08-24T07:51:46;1.27;;;0.97;;
17520;SDS011;8878;-33.370;-70.552;2023-08-24T07:54:15;2.60;;;0.47;;
17520;SDS011;8878;-33.370;-70.552;2023-08-24T07:56:45;0.30;;;0.30;;
17520;SDS011;8878;-33.370;-70.552;2023-08-24T07:59:14;1.40;;;0.40;;
17520;SDS011;8878;-33.370;-70.552;2023-08-24T08:01:43;0.87;;;0.60;;
17520;SDS011;8878;-33.370;-70.552;2023-08-24T08:04:13;0.30;;;0.30;;
17520;SDS011;8878;-33.370;-70.552;2023-08-24T08:06:42;1.30;;;1.20;;
17520;SDS011;8878;-33.370;-70.552;2023-08-24T08:09:13;0.97;;;0.80;;
17520;SDS011;8878;-33.370;-70.552;2023-08-24T08:11:44;0.60;;;0.60;;
17520;SDS011;8878;-33.370;-70.552;2023-08-24T08:14:15;0.90;;;0.90;;
17520;SDS011;8878;-33.370;-70.552;2023-08-24T08:16:52;0.67;;;0.50;;
17520;SDS011;8878;-33.370;-70.552;2023-08-24T08:19:22;1.20;;;1.03;;
17520;SDS011;8878;-33.370;-70.552;2023-08-24T08:21:54;0.60;;;0.60;;
17520;SDS011;8878;-33.370;-70.552;2023-08-24T08:24:33;1.80;;;1.37;;
17520;SDS011;8878;-33.370;-70.552;2023-08-24T08:27:03;2.77;;;1.10;;
17520;SDS011;8878;-33.370;-70.552;2023-08-24T08:29:33;2.50;;;1.50;;
17520;SDS011;8878;-33.370;-70.552;2023-08-24T08:32:03;2.53;;;1.87;;
17520;SDS011;8878;-33.370;-70.552;2023-08-24T08:34:33;0.83;;;0.77;;
17520;SDS011;8878;-33.370;-70.552;2023-08-24T08:37:03;2.60;;;1.40;;
17520;SDS011;8878;-33.370;-70.552;2023-08-24T08:39:35;1.83;;;1.50;;
17520;SDS011;8878;-33.370;-70.552;2023-08-24T08:42:04;5.73;;;3.20;;
17520;SDS011;8878;-33.370;-70.552;2023-08-24T08:44:39;1.80;;;1.70;;
17520;SDS011;8878;-33.370;-70.552;2023-08-24T08:47:11;3.30;;;1.73;;
17520;SDS011;8878;-33.370;-70.552;2023-08-24T08:49:41;2.63;;;2.37;;
17520;SDS011;8878;-33.370;-70.552;2023-08-24T08:52:12;1.97;;;1.87;;
17520;SDS011;8878;-33.370;-70.552;2023-08-24T08:54:44;3.43;;;1.70;;
17520;SDS011;8878;-33.370;-70.552;2023-08-24T08:57:13;5.03;;;4.07;;
17520;SDS011;8878;-33.370;-70.552;2023-08-24T08:59:44;2.83;;;2.43;;
17520;SDS011;8878;-33.370;-70.552;2023-08-24T09:02:16;3.07;;;1.40;;
17520;SDS011;8878;-33.370;-70.552;2023-08-24T09:04:47;1.73;;;1.67;;
17520;SDS011;8878;-33.370;-70.552;2023-08-24T09:07:18;4.60;;;1.77;;
17520;SDS011;8878;-33.370;-70.552;2023-08-24T09:09:50;3.37;;;3.10;;
17520;SDS011;8878;-33.370;-70.552;2023-08-24T09:12:20;2.67;;;1.60;;
17520;SDS011;8878;-33.370;-70.552;2023-08-24T09:14:49;1.23;;;1.23;;
17520;SDS011;8878;-33.370;-70.552;2023-08-24T09:17:22;1.13;;;1.10;;
17520;SDS011;8878;-33.370;-70.552;2023-08-24T09:19:53;1.37;;;0.90;;
17520;SDS011;8878;-33.370;-70.552;2023-08-24T09:22:27;1.63;;;0.90;;
17520;SDS011;8878;-33.370;-70.552;2023-08-24T09:25:04;4.13;;;1.73;;
17520;SDS011;8878;-33.370;-70.552;2023-08-24T09:27:34;1.67;;;1.33;;
17520;SDS011;8878;-33.370;-70.552;2023-08-24T09:30:04;2.23;;;2.03;;
17520;SDS011;8878;-33.370;-70.552;2023-08-24T09:32:34;2.20;;;1.83;;
17520;SDS011;8878;-33.370;-70.552;2023-08-24T09:35:04;2.53;;;1.50;;
17520;SDS011;8878;-33.370;-70.552;2023-08-24T09:37:37;1.27;;;1.17;;
17520;SDS011;8878;-33.370;-70.552;2023-08-24T09:40:10;1.33;;;1.33;;
17520;SDS011;8878;-33.370;-70.552;2023-08-24T09:42:41;2.43;;;2.30;;
17520;SDS011;8878;-33.370;-70.552;2023-08-24T09:45:11;2.37;;;2.27;;
17520;SDS011;8878;-33.370;-70.552;2023-08-24T09:47:45;0.97;;;0.97;;
17520;SDS011;8878;-33.370;-70.552;2023-08-24T09:50:17;2.20;;;1.27;;
17520;SDS011;8878;-33.370;-70.552;2023-08-24T09:52:47;1.10;;;1.10;;
17520;SDS011;8878;-33.370;-70.552;2023-08-24T09:55:22;3.50;;;1.00;;
17520;SDS011;8878;-33.370;-70.552;2023-08-24T09:57:57;1.73;;;1.63;;
17520;SDS011;8878;-33.370;-70.552;2023-08-24T10:00:28;2.20;;;2.10;;
17520;SDS011;8878;-33.370;-70.552;2023-08-24T10:02:58;3.40;;;2.13;;
17520;SDS011;8878;-33.370;-70.552;2023-08-24T10:05:31;3.10;;;1.80;;
17520;SDS011;8878;-33.370;-70.552;2023-08-24T10:08:02;5.27;;;1.63;;
17520;SDS011;8878;-33.370;-70.552;2023-08-24T10:10:36;3.17;;;2.73;;
17520;SDS011;8878;-33.370;-70.552;2023-08-24T10:13:10;1.23;;;0.90;;
17520;SDS011;8878;-33.370;-70.552;2023-08-24T10:15:47;1.53;;;1.43;;
17520;SDS011;8878;-33.370;-70.552;2023-08-24T10:18:18;2.13;;;1.40;;
17520;SDS011;8878;-33.370;-70.552;2023-08-24T10:20:49;2.27;;;1.63;;
17520;SDS011;8878;-33.370;-70.552;2023-08-24T10:23:20;2.80;;;2.07;;
17520;SDS011;8878;-33.370;-70.552;2023-08-24T10:25:52;4.07;;;2.03;;
17520;SDS011;8878;-33.370;-70.552;2023-08-24T10:28:23;6.73;;;3.33;;
17520;SDS011;8878;-33.370;-70.552;2023-08-24T10:30:54;2.77;;;1.67;;
17520;SDS011;8878;-33.370;-70.552;2023-08-24T10:33:26;1.67;;;1.57;;
17520;SDS011;8878;-33.370;-70.552;2023-08-24T10:35:55;4.03;;;1.90;;
17520;SDS011;8878;-33.370;-70.552;2023-08-24T10:38:26;2.33;;;2.13;;
17520;SDS011;8878;-33.370;-70.552;2023-08-24T10:41:03;1.27;;;1.17;;
17520;SDS011;8878;-33.370;-70.552;2023-08-24T10:43:34;2.53;;;2.33;;
17520;SDS011;8878;-33.370;-70.552;2023-08-24T10:46:11;2.53;;;1.47;;
17520;SDS011;8878;-33.370;-70.552;2023-08-24T10:48:58;1.97;;;1.80;;
17520;SDS011;8878;-33.370;-70.552;2023-08-24T10:51:28;3.23;;;2.60;;
17520;SDS011;8878;-33.370;-70.552;2023-08-24T10:53:58;2.47;;;2.27;;
17520;SDS011;8878;-33.370;-70.552;2023-08-24T10:56:34;6.80;;;2.33;;
17520;SDS011;8878;-33.370;-70.552;2023-08-24T10:59:09;2.50;;;1.90;;
17520;SDS011;8878;-33.370;-70.552;2023-08-24T11:01:40;4.93;;;2.17;;
17520;SDS011;8878;-33.370;-70.552;2023-08-24T11:04:11;3.40;;;1.87;;
17520;SDS011;8878;-33.370;-70.552;2023-08-24T11:06:56;6.37;;;1.77;;
17520;SDS011;8878;-33.370;-70.552;2023-08-24T11:09:44;6.33;;;2.57;;
17520;SDS011;8878;-33.370;-70.552;2023-08-24T11:12:16;1.53;;;1.43;;
17520;SDS011;8878;-33.370;-70.552;2023-08-24T11:14:48;2.17;;;1.97;;
17520;SDS011;8878;-33.370;-70.552;2023-08-24T11:17:20;5.03;;;2.87;;
17520;SDS011;8878;-33.370;-70.552;2023-08-24T11:19:50;3.07;;;2.37;;
17520;SDS011;8878;-33.370;-70.552;2023-08-24T11:22:20;9.60;;;2.47;;
17520;SDS011;8878;-33.370;-70.552;2023-08-24T11:24:49;3.60;;;1.87;;
17520;SDS011;8878;-33.370;-70.552;2023-08-24T11:27:22;2.87;;;2.60;;
17520;SDS011;8878;-33.370;-70.552;2023-08-24T11:29:57;3.70;;;1.33;;
17520;SDS011;8878;-33.370;-70.552;2023-08-24T11:32:27;4.43;;;3.03;;
17520;SDS011;8878;-33.370;-70.552;2023-08-24T11:34:57;3.00;;;2.60;;
17520;SDS011;8878;-33.370;-70.552;2023-08-24T11:37:26;3.17;;;2.00;;
17520;SDS011;8878;-33.370;-70.552;2023-08-24T11:39:55;1.83;;;1.60;;
17520;SDS011;8878;-33.370;-70.552;2023-08-24T11:42:27;4.40;;;2.43;;
17520;SDS011;8878;-33.370;-70.552;2023-08-24T11:45:11;4.43;;;1.27;;
17520;SDS011;8878;-33.370;-70.552;2023-08-24T11:47:40;1.43;;;1.33;;
17520;SDS011;8878;-33.370;-70.552;2023-08-24T11:50:10;3.60;;;1.70;;
17520;SDS011;8878;-33.370;-70.552;2023-08-24T11:52:40;1.77;;;1.60;;
17520;SDS011;8878;-33.370;-70.552;2023-08-24T11:55:11;4.83;;;2.43;;
17520;SDS011;8878;-33.370;-70.552;2023-08-24T11:57:42;2.80;;;2.00;;
17520;SDS011;8878;-33.370;-70.552;2023-08-24T12:00:12;3.37;;;2.63;;
17520;SDS011;8878;-33.370;-70.552;2023-08-24T12:02:42;3.27;;;2.40;;
17520;SDS011;8878;-33.370;-70.552;2023-08-24T12:05:21;2.30;;;1.93;;
17520;SDS011;8878;-33.370;-70.552;2023-08-24T12:07:51;4.37;;;3.23;;
17520;SDS011;8878;-33.370;-70.552;2023-08-24T12:10:22;2.40;;;2.17;;
17520;SDS011;8878;-33.370;-70.552;2023-08-24T12:13:02;3.70;;;2.17;;
17520;SDS011;8878;-33.370;-70.552;2023-08-24T12:15:34;2.93;;;1.80;;
17520;SDS011;8878;-33.370;-70.552;2023-08-24T12:18:10;3.00;;;1.43;;
17520;SDS011;8878;-33.370;-70.552;2023-08-24T12:20:40;4.53;;;2.77;;
17520;SDS011;8878;-33.370;-70.552;2023-08-24T12:23:11;1.73;;;1.50;;
17520;SDS011;8878;-33.370;-70.552;2023-08-24T12:25:42;4.17;;;1.80;;
17520;SDS011;8878;-33.370;-70.552;2023-08-24T12:28:14;3.60;;;2.50;;
17520;SDS011;8878;-33.370;-70.552;2023-08-24T12:30:47;3.53;;;1.77;;
17520;SDS011;8878;-33.370;-70.552;2023-08-24T12:33:24;2.93;;;2.37;;
17520;SDS011;8878;-33.370;-70.552;2023-08-24T12:35:54;1.07;;;0.70;;
17520;SDS011;8878;-33.370;-70.552;2023-08-24T12:38:24;25.73;;;2.43;;
17520;SDS011;8878;-33.370;-70.552;2023-08-24T12:40:54;2.90;;;1.77;;
17520;SDS011;8878;-33.370;-70.552;2023-08-24T12:43:25;1.27;;;1.23;;
17520;SDS011;8878;-33.370;-70.552;2023-08-24T12:45:55;2.27;;;1.87;;
17520;SDS011;8878;-33.370;-70.552;2023-08-24T12:48:24;2.93;;;2.17;;
17520;SDS011;8878;-33.370;-70.552;2023-08-24T12:50:54;3.77;;;1.97;;
17520;SDS011;8878;-33.370;-70.552;2023-08-24T12:53:24;1.90;;;0.97;;
17520;SDS011;8878;-33.370;-70.552;2023-08-24T12:55:54;1.53;;;1.27;;
17520;SDS011;8878;-33.370;-70.552;2023-08-24T12:58:23;2.73;;;2.40;;
17520;SDS011;8878;-33.370;-70.552;2023-08-24T13:00:54;2.23;;;2.03;;
17520;SDS011;8878;-33.370;-70.552;2023-08-24T13:03:23;2.47;;;2.20;;
17520;SDS011;8878;-33.370;-70.552;2023-08-24T13:05:53;4.67;;;1.60;;
17520;SDS011;8878;-33.370;-70.552;2023-08-24T13:08:22;2.93;;;1.80;;
17520;SDS011;8878;-33.370;-70.552;2023-08-24T13:10:52;2.43;;;0.87;;
17520;SDS011;8878;-33.370;-70.552;2023-08-24T13:13:21;4.53;;;2.70;;
17520;SDS011;8878;-33.370;-70.552;2023-08-24T13:15:52;1.63;;;1.53;;
17520;SDS011;8878;-33.370;-70.552;2023-08-24T13:18:30;3.87;;;2.27;;
17520;SDS011;8878;-33.370;-70.552;2023-08-24T13:21:00;2.93;;;2.17;;
17520;SDS011;8878;-33.370;-70.552;2023-08-24T13:23:29;3.93;;;2.27;;
17520;SDS011;8878;-33.370;-70.552;2023-08-24T13:25:59;1.80;;;1.47;;
17520;SDS011;8878;-33.370;-70.552;2023-08-24T13:28:29;1.67;;;1.57;;
17520;SDS011;8878;-33.370;-70.552;2023-08-24T13:31:00;5.07;;;2.37;;
17520;SDS011;8878;-33.370;-70.552;2023-08-24T13:33:29;5.10;;;2.30;;
17520;SDS011;8878;-33.370;-70.552;2023-08-24T13:35:59;2.30;;;1.93;;
17520;SDS011;8878;-33.370;-70.552;2023-08-24T13:38:29;6.03;;;1.73;;
17520;SDS011;8878;-33.370;-70.552;2023-08-24T13:40:59;1.80;;;1.20;;
17520;SDS011;8878;-33.370;-70.552;2023-08-24T13:43:29;4.93;;;1.50;;
17520;SDS011;8878;-33.370;-70.552;2023-08-24T13:46:01;1.70;;;1.17;;
17520;SDS011;8878;-33.370;-70.552;2023-08-24T13:48:31;5.70;;;1.40;;
17520;SDS011;8878;-33.370;-70.552;2023-08-24T13:51:00;0.80;;;0.80;;
17520;SDS011;8878;-33.370;-70.552;2023-08-24T13:53:30;2.33;;;1.83;;
17520;SDS011;8878;-33.370;-70.552;2023-08-24T13:55:59;2.83;;;2.20;;
17520;SDS011;8878;-33.370;-70.552;2023-08-24T13:58:28;2.27;;;1.90;;
17520;SDS011;8878;-33.370;-70.552;2023-08-24T14:00:58;1.63;;;1.20;;
17520;SDS011;8878;-33.370;-70.552;2023-08-24T14:03:30;2.23;;;1.73;;
17520;SDS011;8878;-33.370;-70.552;2023-08-24T14:06:00;3.73;;;2.67;;
17520;SDS011;8878;-33.370;-70.552;2023-08-24T14:08:29;3.43;;;1.47;;
17520;SDS011;8878;-33.370;-70.552;2023-08-24T14:10:59;6.63;;;2.70;;
17520;SDS011;8878;-33.370;-70.552;2023-08-24T14:13:28;1.60;;;1.27;;
17520;SDS011;8878;-33.370;-70.552;2023-08-24T14:15:58;3.10;;;1.70;;
17520;SDS011;8878;-33.370;-70.552;2023-08-24T14:18:27;2.23;;;1.07;;
17520;SDS011;8878;-33.370;-70.552;2023-08-24T14:20:58;2.13;;;1.50;;
17520;SDS011;8878;-33.370;-70.552;2023-08-24T14:23:29;2.37;;;2.20;;
17520;SDS011;8878;-33.370;-70.552;2023-08-24T14:25:59;2.93;;;1.63;;
17520;SDS011;8878;-33.370;-70.552;2023-08-24T14:31:16;1.33;;;1.03;;
17520;SDS011;8878;-33.370;-70.552;2023-08-24T14:33:49;1.87;;;1.77;;
17520;SDS011;8878;-33.370;-70.552;2023-08-24T14:36:18;1.47;;;1.37;;
17520;SDS011;8878;-33.370;-70.552;2023-08-24T14:38:48;3.03;;;2.00;;
17520;SDS011;8878;-33.370;-70.552;2023-08-24T14:41:18;2.30;;;1.60;;
17520;SDS011;8878;-33.370;-70.552;2023-08-24T14:43:49;3.63;;;1.23;;
17520;SDS011;8878;-33.370;-70.552;2023-08-24T14:46:18;1.90;;;1.17;;
17520;SDS011;8878;-33.370;-70.552;2023-08-24T14:48:49;1.80;;;1.60;;